Time;durP1;ratioP1;P1;durP2;ratioP2;P2;SDS_P1;SDS_P2;PMS_P1;PMS_P2;Temp;Humidity;BMP_temperature;BMP_pressure;BME280_temperature;BME280_humidity;BME280_pressure;Samples;Min_cycle;Max_cycle;Signal;HPM_P1;HPM_P2
2023/06/16 00:00:15;;;;;;;5.25;3.10;;;21.40;35.40;;;;;;4983494;28;20407;-87
2023/06/16 00:02:43;;;;;;;4.07;2.85;;;21.40;35.30;;;;;;4981073;28;20054;-87
2023/06/16 00:05:12;;;;;;;5.20;3.17;;;21.30;35.40;;;;;;4981268;28;20423;-87
2023/06/16 00:07:40;;;;;;;3.88;2.92;;;21.30;35.70;;;;;;4980436;28;20050;-87
2023/06/16 00:10:08;;;;;;;5.18;2.92;;;21.30;35.70;;;;;;4982807;28;20066;-87
2023/06/16 00:12:37;;;;;;;4.30;3.05;;;21.30;35.70;;;;;;4979774;28;20058;-87
2023/06/16 00:15:06;;;;;;;4.88;3.10;;;21.20;35.60;;;;;;4982696;28;20058;-87
2023/06/16 00:17:46;;;;;;;6.03;3.05;;;21.30;35.60;;;;;;4982438;28;20046;-87
2023/06/16 00:20:14;;;;;;;4.40;2.97;;;21.20;35.60;;;;;;4980113;28;20050;-87
2023/06/16 00:22:47;;;;;;;4.28;3.22;;;21.20;35.70;;;;;;4985455;28;20046;-87
2023/06/16 00:25:16;;;;;;;3.40;2.70;;;21.20;35.90;;;;;;4982141;28;20058;-87
2023/06/16 00:27:45;;;;;;;4.47;2.78;;;21.20;36.00;;;;;;4982133;28;20118;-87
2023/06/16 00:30:13;;;;;;;4.15;3.10;;;21.10;36.20;;;;;;4981201;28;20073;-87
2023/06/16 00:32:40;;;;;;;4.32;3.05;;;21.10;36.20;;;;;;4981456;28;20058;-87
2023/06/16 00:35:08;;;;;;;4.60;2.85;;;21.10;36.20;;;;;;4980361;28;20057;-87
2023/06/16 00:37:36;;;;;;;4.63;3.25;;;21.00;36.20;;;;;;4979557;28;20801;-87
2023/06/16 00:40:05;;;;;;;3.65;2.60;;;21.00;36.20;;;;;;4981383;28;20062;-87
2023/06/16 00:42:32;;;;;;;5.13;3.10;;;21.00;36.20;;;;;;4980942;28;20050;-87
2023/06/16 00:45:01;;;;;;;4.50;2.83;;;20.90;36.20;;;;;;4982070;28;20487;-87
2023/06/16 00:47:28;;;;;;;4.93;2.88;;;20.90;36.20;;;;;;4982199;28;20076;-87
2023/06/16 00:49:56;;;;;;;5.45;3.17;;;20.80;36.40;;;;;;4980530;28;20050;-87
2023/06/16 00:52:26;;;;;;;4.47;3.17;;;20.80;36.60;;;;;;4980469;28;20518;-87
2023/06/16 00:54:55;;;;;;;5.00;3.00;;;20.80;36.80;;;;;;4981996;28;20061;-87
2023/06/16 00:57:22;;;;;;;4.30;2.90;;;20.70;36.70;;;;;;4982022;28;20061;-87
2023/06/16 00:59:49;;;;;;;4.03;2.83;;;20.70;36.70;;;;;;4980827;28;20062;-87
2023/06/16 01:02:18;;;;;;;5.55;3.63;;;20.60;36.70;;;;;;4977932;28;20062;-86
2023/06/16 01:04:47;;;;;;;6.18;3.35;;;20.60;36.70;;;;;;4999472;23;20610;-50
2023/06/16 01:07:21;;;;;;;5.05;3.08;;;20.60;36.40;;;;;;4998832;28;20053;-53
2023/06/16 01:09:55;;;;;;;5.35;3.10;;;20.50;36.40;;;;;;4999995;28;20068;-48
2023/06/16 01:12:25;;;;;;;;;;;20.50;36.60;;;;;;5000998;28;20053;-51
2023/06/16 01:15:03;;;;;;;5.10;2.88;;;20.50;36.40;;;;;;5002056;28;20301;-52
2023/06/16 01:17:36;;;;;;;4.70;3.05;;;20.40;36.90;;;;;;5001347;28;20050;-52
2023/06/16 01:20:11;;;;;;;5.43;3.47;;;20.40;37.20;;;;;;5000236;28;20061;-51
2023/06/16 01:23:06;;;;;;;3.92;2.83;;;20.30;37.30;;;;;;4996499;28;20540;-49
2023/06/16 01:25:38;;;;;;;4.70;2.72;;;20.30;37.50;;;;;;4995674;28;20053;-47
2023/06/16 01:28:07;;;;;;;4.63;2.78;;;20.20;37.50;;;;;;5002583;28;21443;-52
2023/06/16 01:30:35;;;;;;;7.15;3.35;;;20.20;37.60;;;;;;4998766;28;20054;-51
2023/06/16 01:33:04;;;;;;;3.88;2.72;;;20.10;37.70;;;;;;5000886;28;20060;-51
2023/06/16 01:35:34;;;;;;;4.40;2.90;;;20.10;37.70;;;;;;5000948;28;20057;-49
2023/06/16 01:38:02;;;;;;;5.00;3.08;;;20.00;37.70;;;;;;4996977;28;20054;-50
2023/06/16 01:40:31;;;;;;;5.50;3.45;;;20.00;37.70;;;;;;5000579;28;20060;-51
2023/06/16 01:43:01;;;;;;;6.20;3.22;;;20.00;37.90;;;;;;5003120;28;20426;-48
2023/06/16 01:45:30;;;;;;;6.07;3.25;;;19.90;37.80;;;;;;5001364;28;20402;-50
2023/06/16 01:47:57;;;;;;;3.53;2.80;;;19.90;37.70;;;;;;4997493;28;20053;-50
2023/06/16 01:50:25;;;;;;;4.45;2.95;;;19.80;37.90;;;;;;4999451;28;20058;-50
2023/06/16 01:52:52;;;;;;;6.70;3.35;;;19.80;38.00;;;;;;4999828;28;20046;-50
2023/06/16 01:55:20;;;;;;;8.30;3.65;;;19.80;38.00;;;;;;5001162;28;20523;-49
2023/06/16 01:57:47;;;;;;;6.43;3.08;;;19.70;38.10;;;;;;4999483;28;20068;-51
2023/06/16 02:00:20;;;;;;;5.55;3.20;;;19.70;38.10;;;;;;5000024;28;20100;-48
2023/06/16 02:02:53;;;;;;;8.07;3.55;;;19.60;38.20;;;;;;5000714;28;20050;-52
2023/06/16 02:05:25;;;;;;;6.20;3.38;;;19.60;38.20;;;;;;4979682;28;20058;-49
2023/06/16 02:07:54;;;;;;;4.95;3.25;;;19.60;38.30;;;;;;4977133;28;20050;-50
2023/06/16 02:10:23;;;;;;;6.05;3.10;;;19.50;38.30;;;;;;4982141;28;20054;-48
2023/06/16 02:12:50;;;;;;;4.65;2.90;;;19.50;38.40;;;;;;4982001;28;20204;-51
2023/06/16 02:15:20;;;;;;;4.78;3.17;;;19.40;38.50;;;;;;4980530;28;20398;-52
2023/06/16 02:17:50;;;;;;;5.35;3.22;;;19.40;38.60;;;;;;4980936;28;20083;-51
2023/06/16 02:20:18;;;;;;;7.88;3.22;;;19.40;38.60;;;;;;4981459;28;20474;-47
2023/06/16 02:22:45;;;;;;;4.75;3.20;;;19.40;38.70;;;;;;4978539;28;20058;-48
2023/06/16 02:25:12;;;;;;;4.53;3.47;;;19.40;38.80;;;;;;4981815;28;20413;-49
2023/06/16 02:27:40;;;;;;;5.82;3.28;;;19.30;38.90;;;;;;4979391;28;20054;-46
2023/06/16 02:30:09;;;;;;;5.45;3.25;;;19.40;39.20;;;;;;4980541;28;20054;-49
2023/06/16 02:32:37;;;;;;;5.47;3.30;;;19.30;39.30;;;;;;4978363;28;20065;-46
2023/06/16 02:35:06;;;;;;;4.32;3.03;;;19.30;39.50;;;;;;4980425;28;20050;-48
2023/06/16 02:37:36;;;;;;;5.15;3.55;;;19.30;39.60;;;;;;4976274;28;20054;-46
2023/06/16 02:40:04;;;;;;;4.95;3.20;;;19.30;39.60;;;;;;4979637;28;20054;-48
2023/06/16 02:42:31;;;;;;;3.60;2.88;;;19.30;39.60;;;;;;4979996;28;20053;-50
2023/06/16 02:44:58;;;;;;;6.50;3.05;;;19.30;39.70;;;;;;4981874;28;20066;-50
2023/06/16 02:47:26;;;;;;;3.72;2.90;;;19.20;39.50;;;;;;4977915;28;20051;-46
2023/06/16 02:49:55;;;;;;;5.50;3.38;;;19.20;39.50;;;;;;4979479;28;20050;-47
2023/06/16 02:52:22;;;;;;;5.05;3.65;;;19.20;39.40;;;;;;4979309;28;20066;-49
2023/06/16 02:54:50;;;;;;;5.93;3.20;;;19.10;39.50;;;;;;4979116;28;20077;-47
2023/06/16 02:57:17;;;;;;;6.55;3.50;;;19.10;39.50;;;;;;4978683;28;20486;-48
2023/06/16 02:59:44;;;;;;;4.22;2.90;;;19.00;39.60;;;;;;4979774;28;20054;-48
2023/06/16 03:02:12;;;;;;;5.28;3.20;;;19.00;39.70;;;;;;4978758;28;20054;-51
2023/06/16 03:04:40;;;;;;;5.20;3.33;;;19.00;39.90;;;;;;4979176;28;20105;-46
2023/06/16 03:07:09;;;;;;;4.57;3.20;;;18.90;40.10;;;;;;4978988;28;20058;-46
2023/06/16 03:09:37;;;;;;;7.00;2.78;;;18.90;40.20;;;;;;4978096;28;20069;-48
2023/06/16 03:12:05;;;;;;;4.68;3.00;;;18.90;40.30;;;;;;4976846;28;20050;-49
2023/06/16 03:14:32;;;;;;;4.57;3.10;;;18.80;40.40;;;;;;4976343;28;20399;-47
2023/06/16 03:17:00;;;;;;;5.40;3.10;;;18.80;40.30;;;;;;4978854;28;20057;-50
2023/06/16 03:19:27;;;;;;;8.25;3.80;;;18.80;40.30;;;;;;4980732;28;20398;-47
2023/06/16 03:21:54;;;;;;;5.40;3.25;;;18.70;40.20;;;;;;4975826;28;20414;-43
2023/06/16 03:24:24;;;;;;;8.75;3.55;;;18.70;40.30;;;;;;4980901;28;20061;-44
2023/06/16 03:26:51;;;;;;;6.70;3.25;;;18.70;40.50;;;;;;4982550;28;20054;-50
2023/06/16 03:29:18;;;;;;;6.35;3.15;;;18.60;40.50;;;;;;4981710;28;20058;-48
2023/06/16 03:31:46;;;;;;;5.68;3.38;;;18.60;40.60;;;;;;4978962;28;20065;-45
2023/06/16 03:34:13;;;;;;;5.88;3.60;;;18.60;40.60;;;;;;4981501;28;20065;-46
2023/06/16 03:36:40;;;;;;;5.43;3.55;;;18.60;40.60;;;;;;4979785;28;20061;-46
2023/06/16 03:39:07;;;;;;;5.88;3.65;;;18.50;40.50;;;;;;4980900;28;20517;-48
2023/06/16 03:41:36;;;;;;;4.38;3.13;;;18.50;40.50;;;;;;4981065;28;20054;-45
2023/06/16 03:44:04;;;;;;;5.22;3.65;;;18.50;40.60;;;;;;4981704;28;20130;-47
2023/06/16 03:46:31;;;;;;;5.78;3.08;;;18.50;40.60;;;;;;4984960;28;20073;-45
2023/06/16 03:48:59;;;;;;;5.13;3.10;;;18.40;40.60;;;;;;4983788;28;20550;-48
2023/06/16 03:51:26;;;;;;;5.55;3.33;;;18.40;40.70;;;;;;4983944;28;20486;-48
2023/06/16 03:53:53;;;;;;;5.80;3.22;;;18.40;41.00;;;;;;4983674;28;20061;-45
2023/06/16 03:56:21;;;;;;;6.47;3.47;;;18.40;41.20;;;;;;4982906;28;20050;-50
2023/06/16 03:58:50;;;;;;;4.93;3.35;;;18.40;41.30;;;;;;4984802;28;20057;-45
2023/06/16 04:01:20;;;;;;;5.50;3.30;;;18.40;41.30;;;;;;4986312;28;20422;-51
2023/06/16 04:03:49;;;;;;;4.70;3.33;;;18.40;41.20;;;;;;4982705;28;20088;-47
2023/06/16 04:06:16;;;;;;;5.15;3.00;;;18.30;41.40;;;;;;4982842;28;20058;-47
2023/06/16 04:08:44;;;;;;;5.38;3.53;;;18.30;41.50;;;;;;4979907;28;20080;-45
2023/06/16 04:11:12;;;;;;;6.72;4.05;;;18.30;41.60;;;;;;4984373;28;20055;-50
2023/06/16 04:13:39;;;;;;;5.85;4.07;;;18.30;41.70;;;;;;4983886;28;20069;-50
2023/06/16 04:16:08;;;;;;;7.82;4.07;;;18.30;41.80;;;;;;4982781;28;20418;-47
2023/06/16 04:18:36;;;;;;;4.68;3.33;;;18.30;41.90;;;;;;4980241;28;20506;-44
2023/06/16 04:21:03;;;;;;;4.30;3.38;;;18.20;41.80;;;;;;4981581;28;20055;-51
2023/06/16 04:23:30;;;;;;;6.80;3.28;;;18.30;42.40;;;;;;4982922;28;20065;-45
2023/06/16 04:25:58;;;;;;;6.22;3.55;;;18.20;41.90;;;;;;4984235;28;20520;-45
2023/06/16 04:28:25;;;;;;;4.63;3.25;;;18.20;41.90;;;;;;4985625;28;20098;-46
2023/06/16 04:30:56;;;;;;;6.38;3.47;;;18.20;41.90;;;;;;4982242;28;20513;-48
2023/06/16 04:33:24;;;;;;;5.22;3.65;;;18.20;42.00;;;;;;4984692;28;21121;-49
2023/06/16 04:35:52;;;;;;;9.38;3.47;;;18.20;42.00;;;;;;4984119;28;20505;-47
2023/06/16 04:38:19;;;;;;;5.25;3.78;;;18.20;42.20;;;;;;4979854;28;20058;-50
2023/06/16 04:40:47;;;;;;;5.72;3.78;;;18.20;42.40;;;;;;4982215;28;20046;-48
2023/06/16 04:43:14;;;;;;;5.32;3.38;;;18.20;42.50;;;;;;4984289;28;20054;-52
2023/06/16 04:45:43;;;;;;;5.35;3.58;;;18.20;42.70;;;;;;4984039;28;20054;-49
2023/06/16 04:48:10;;;;;;;5.57;3.45;;;18.30;42.90;;;;;;4983201;28;20069;-51
2023/06/16 04:50:38;;;;;;;4.75;3.40;;;18.20;43.00;;;;;;4984096;28;20065;-52
2023/06/16 04:53:06;;;;;;;4.70;3.63;;;18.30;43.10;;;;;;4980470;28;20497;-52
2023/06/16 04:55:33;;;;;;;4.47;3.45;;;18.30;43.20;;;;;;4985006;28;20062;-50
2023/06/16 04:58:00;;;;;;;4.32;3.42;;;18.30;43.20;;;;;;4983078;28;20470;-52
2023/06/16 05:00:29;;;;;;;6.90;3.42;;;18.30;43.30;;;;;;4983719;28;20054;-53
2023/06/16 05:02:57;;;;;;;6.20;3.08;;;18.30;43.40;;;;;;4982645;28;20050;-52
2023/06/16 05:05:25;;;;;;;5.22;3.60;;;18.30;43.40;;;;;;4982807;28;20054;-49
2023/06/16 05:07:54;;;;;;;5.25;3.42;;;18.30;43.60;;;;;;4982291;28;20058;-51
2023/06/16 05:10:21;;;;;;;4.50;3.10;;;18.30;43.70;;;;;;4984484;28;20054;-49
2023/06/16 05:12:49;;;;;;;4.78;3.33;;;18.30;43.50;;;;;;4983237;28;20065;-49
2023/06/16 05:15:17;;;;;;;5.45;3.47;;;18.40;43.40;;;;;;4982920;28;20061;-52
2023/06/16 05:17:45;;;;;;;5.43;3.33;;;18.30;43.40;;;;;;4982228;28;20050;-50
2023/06/16 05:20:13;;;;;;;6.90;3.30;;;18.40;43.70;;;;;;4982572;28;20046;-52
2023/06/16 05:22:41;;;;;;;6.05;3.47;;;18.40;43.70;;;;;;4983378;28;20057;-53
2023/06/16 05:25:10;;;;;;;5.00;3.63;;;18.40;43.80;;;;;;4984191;28;20073;-51
2023/06/16 05:27:38;;;;;;;4.88;3.80;;;18.40;44.10;;;;;;4982835;28;20054;-49
2023/06/16 05:30:07;;;;;;;5.45;3.80;;;18.40;44.70;;;;;;4982849;28;20057;-52
2023/06/16 05:32:35;;;;;;;5.35;3.45;;;18.40;44.20;;;;;;4982266;28;20062;-51
2023/06/16 05:35:03;;;;;;;4.82;3.47;;;18.40;44.40;;;;;;4982171;28;20065;-51
2023/06/16 05:37:31;;;;;;;6.03;3.75;;;18.40;44.60;;;;;;4983004;28;20065;-51
2023/06/16 05:39:58;;;;;;;5.28;3.08;;;18.50;44.80;;;;;;4981563;28;20077;-49
2023/06/16 05:42:33;;;;;;;5.60;3.40;;;18.50;44.90;;;;;;4983892;28;20395;-50
2023/06/16 05:45:01;;;;;;;6.80;3.83;;;18.50;45.00;;;;;;4983127;28;20065;-49
2023/06/16 05:47:28;;;;;;;6.13;3.70;;;18.60;45.00;;;;;;4983369;28;20049;-49
2023/06/16 05:49:57;;;;;;;4.55;3.30;;;18.60;44.80;;;;;;4983121;28;20050;-51
2023/06/16 05:52:24;;;;;;;9.60;4.15;;;18.60;44.80;;;;;;4982326;28;20414;-48
2023/06/16 05:54:51;;;;;;;11.88;4.53;;;18.70;45.60;;;;;;4982112;28;21386;-51
2023/06/16 05:57:19;;;;;;;6.72;3.85;;;18.70;45.80;;;;;;4981906;28;20069;-49
2023/06/16 05:59:48;;;;;;;17.85;4.95;;;18.70;45.90;;;;;;4982883;28;20057;-50
2023/06/16 06:02:17;;;;;;;6.85;3.88;;;18.70;46.80;;;;;;4982672;28;20058;-51
2023/06/16 06:04:44;;;;;;;5.22;3.88;;;18.70;46.10;;;;;;4983150;28;20058;-51
2023/06/16 06:07:11;;;;;;;5.78;3.60;;;18.80;46.50;;;;;;4980200;28;20070;-50
2023/06/16 06:09:39;;;;;;;19.92;4.97;;;18.80;46.20;;;;;;4982573;28;20049;-50
2023/06/16 06:12:07;;;;;;;6.13;3.80;;;18.80;46.50;;;;;;4981953;28;20054;-51
2023/06/16 06:14:34;;;;;;;5.95;3.80;;;18.90;46.60;;;;;;4979854;28;20940;-49
2023/06/16 06:17:03;;;;;;;7.35;4.40;;;19.00;47.00;;;;;;4982831;28;20066;-50
2023/06/16 06:19:31;;;;;;;6.43;4.03;;;19.00;46.80;;;;;;4982939;28;20525;-48
2023/06/16 06:21:58;;;;;;;10.25;4.18;;;19.10;46.70;;;;;;4980668;28;20054;-51
2023/06/16 06:24:25;;;;;;;6.45;4.10;;;19.20;46.80;;;;;;4980776;28;20058;-52
2023/06/16 06:26:52;;;;;;;10.00;4.80;;;19.20;46.70;;;;;;4982790;28;20062;-49
2023/06/16 06:29:20;;;;;;;14.48;4.80;;;19.20;47.00;;;;;;4981721;28;20055;-50
2023/06/16 06:31:47;;;;;;;8.60;4.18;;;19.40;47.30;;;;;;4982951;28;20422;-51
2023/06/16 06:34:16;;;;;;;6.53;4.25;;;19.40;47.30;;;;;;4982650;28;20054;-54
2023/06/16 06:36:43;;;;;;;6.00;4.03;;;19.40;46.60;;;;;;4981088;28;20058;-52
2023/06/16 06:39:13;;;;;;;6.88;4.13;;;19.50;46.30;;;;;;4980149;28;20485;-51
2023/06/16 06:41:41;;;;;;;14.40;4.53;;;19.50;46.60;;;;;;4981065;28;20528;-53
2023/06/16 06:44:08;;;;;;;15.00;4.82;;;19.70;46.00;;;;;;4982181;28;20066;-53
2023/06/16 06:46:35;;;;;;;7.50;4.13;;;19.70;44.30;;;;;;4982583;28;20513;-54
2023/06/16 06:49:02;;;;;;;9.65;4.22;;;19.80;44.60;;;;;;4981834;28;20050;-56
2023/06/16 06:51:31;;;;;;;8.40;4.18;;;19.80;45.70;;;;;;4981292;28;20054;-51
2023/06/16 06:53:58;;;;;;;6.47;4.28;;;19.90;45.70;;;;;;4981590;28;20058;-53
2023/06/16 06:56:26;;;;;;;11.20;4.32;;;20.00;45.10;;;;;;4982636;28;20054;-51
2023/06/16 06:58:53;;;;;;;14.40;4.60;;;20.00;44.60;;;;;;4981774;28;20077;-49
2023/06/16 07:01:20;;;;;;;7.78;3.85;;;20.10;44.30;;;;;;4982012;28;20421;-48
2023/06/16 07:03:47;;;;;;;5.35;3.80;;;20.20;43.50;;;;;;4981337;28;20530;-51
2023/06/16 07:06:15;;;;;;;7.15;3.95;;;20.20;43.60;;;;;;4981840;28;20050;-53
2023/06/16 07:08:43;;;;;;;8.85;4.05;;;20.30;43.70;;;;;;4980882;28;20054;-52
2023/06/16 07:11:10;;;;;;;4.82;3.38;;;20.40;43.90;;;;;;4981735;28;20057;-52
2023/06/16 07:13:38;;;;;;;6.78;3.22;;;20.50;43.70;;;;;;4982568;28;20525;-52
2023/06/16 07:16:05;;;;;;;6.00;3.80;;;20.60;43.60;;;;;;4981419;28;20058;-54
2023/06/16 07:18:32;;;;;;;8.50;3.58;;;20.60;43.70;;;;;;4981897;28;20062;-51
2023/06/16 07:20:59;;;;;;;6.82;4.40;;;20.70;43.00;;;;;;4983879;28;20494;-55
2023/06/16 07:23:27;;;;;;;6.15;4.18;;;20.70;42.80;;;;;;4984227;28;20061;-53
2023/06/16 07:25:55;;;;;;;9.07;4.18;;;20.80;42.60;;;;;;4986397;28;20061;-54
2023/06/16 07:28:23;;;;;;;7.50;4.60;;;20.80;42.90;;;;;;4985721;28;20060;-54
2023/06/16 07:30:52;;;;;;;10.70;4.50;;;20.90;43.10;;;;;;4983310;28;20501;-52
2023/06/16 07:33:19;;;;;;;9.70;4.93;;;21.00;42.90;;;;;;4983969;28;20498;-50
2023/06/16 07:35:46;;;;;;;5.55;3.83;;;21.00;43.20;;;;;;4983398;28;20061;-51
2023/06/16 07:38:14;;;;;;;6.95;3.83;;;21.20;42.90;;;;;;4978541;28;20061;-51
2023/06/16 07:40:41;;;;;;;10.75;4.47;;;21.20;42.70;;;;;;4981152;28;20066;-54
2023/06/16 07:43:10;;;;;;;8.70;3.85;;;21.30;42.40;;;;;;4979601;28;20063;-49
2023/06/16 07:45:37;;;;;;;8.45;4.63;;;21.30;41.90;;;;;;4980337;28;20426;-52
2023/06/16 07:48:07;;;;;;;9.23;4.15;;;21.40;42.10;;;;;;4977695;28;20046;-52
2023/06/16 07:50:35;;;;;;;7.47;4.40;;;21.50;42.00;;;;;;4981590;28;20054;-53
2023/06/16 07:53:02;;;;;;;8.93;4.15;;;21.60;42.20;;;;;;4981118;28;21196;-50
2023/06/16 07:55:29;;;;;;;11.10;4.32;;;21.60;42.30;;;;;;4982053;28;20446;-56
2023/06/16 07:57:57;;;;;;;8.23;4.30;;;21.70;42.50;;;;;;4981246;28;20053;-57
2023/06/16 08:00:25;;;;;;;7.90;4.38;;;21.80;42.60;;;;;;4979787;28;20054;-52
2023/06/16 08:02:53;;;;;;;9.73;4.22;;;21.80;42.10;;;;;;4980964;28;20061;-54
2023/06/16 08:05:21;;;;;;;5.53;3.88;;;21.90;42.10;;;;;;4980224;28;20779;-48
2023/06/16 08:07:49;;;;;;;5.35;3.95;;;22.00;41.90;;;;;;4980808;28;20054;-50
2023/06/16 08:10:19;;;;;;;4.90;3.38;;;22.10;40.80;;;;;;4981197;28;20431;-48
2023/06/16 08:12:49;;;;;;;6.25;3.38;;;22.10;40.30;;;;;;4984655;28;20061;-50
2023/06/16 08:15:16;;;;;;;8.15;3.65;;;22.20;40.50;;;;;;4984898;28;20061;-45
2023/06/16 08:17:45;;;;;;;5.45;3.63;;;22.30;40.60;;;;;;4984640;28;20058;-47
2023/06/16 08:20:13;;;;;;;6.32;3.85;;;22.30;40.90;;;;;;4985236;28;20050;-48
2023/06/16 08:22:40;;;;;;;5.18;3.72;;;22.40;40.60;;;;;;4983153;28;20524;-48
2023/06/16 08:25:08;;;;;;;4.82;3.15;;;22.40;40.90;;;;;;4984326;28;20054;-50
2023/06/16 08:27:35;;;;;;;5.68;4.07;;;22.50;40.70;;;;;;4984277;28;20058;-48
2023/06/16 08:30:04;;;;;;;6.07;3.60;;;22.60;40.60;;;;;;4984192;28;20050;-49
2023/06/16 08:32:32;;;;;;;5.68;3.65;;;22.60;39.80;;;;;;4984104;28;20054;-48
2023/06/16 08:35:00;;;;;;;6.10;3.92;;;22.70;39.90;;;;;;4986107;28;20058;-48
2023/06/16 08:37:28;;;;;;;5.88;4.00;;;22.80;39.90;;;;;;4983625;28;20062;-49
2023/06/16 08:39:55;;;;;;;7.13;4.03;;;22.80;40.00;;;;;;4983709;28;20403;-49
2023/06/16 08:42:23;;;;;;;5.85;3.67;;;22.90;39.20;;;;;;4984964;28;20512;-48
2023/06/16 08:44:52;;;;;;;5.05;3.30;;;22.90;39.20;;;;;;4984029;28;20494;-49
2023/06/16 08:47:20;;;;;;;5.13;3.58;;;23.00;39.70;;;;;;4984929;28;20517;-49
2023/06/16 08:49:52;;;;;;;6.43;3.80;;;23.10;39.50;;;;;;4985049;28;20057;-49
2023/06/16 08:52:23;;;;;;;7.88;4.00;;;23.10;39.70;;;;;;4982691;28;20059;-50
2023/06/16 08:54:57;;;;;;;9.63;4.07;;;23.20;38.90;;;;;;4983928;28;20061;-47
2023/06/16 08:57:25;;;;;;;;;;;23.20;37.30;;;;;;4983967;28;20845;-47
2023/06/16 08:59:56;;;;;;;9.50;4.25;;;23.30;37.20;;;;;;4983537;28;19955;-50
2023/06/16 09:02:24;;;;;;;6.93;3.95;;;23.30;37.80;;;;;;4984265;28;20636;-46
2023/06/16 09:04:53;;;;;;;6.40;3.75;;;23.40;38.40;;;;;;4983100;28;20050;-48
2023/06/16 09:07:27;;;;;;;7.32;4.25;;;23.50;38.20;;;;;;4982721;28;20513;-48
2023/06/16 09:09:55;;;;;;;6.00;4.22;;;23.50;37.30;;;;;;4983908;28;20062;-57
2023/06/16 09:12:22;;;;;;;5.63;3.85;;;23.60;36.70;;;;;;4982431;28;20921;-50
2023/06/16 09:14:50;;;;;;;12.15;3.78;;;23.60;35.30;;;;;;4982292;28;20058;-47
2023/06/16 09:17:24;;;;;;;8.60;4.18;;;23.60;35.40;;;;;;4982704;28;20080;-54
2023/06/16 09:19:53;;;;;;;6.65;3.55;;;23.70;34.90;;;;;;4982624;28;20073;-49
2023/06/16 09:22:26;;;;;;;8.27;3.67;;;23.80;35.30;;;;;;4982926;28;20058;-50
2023/06/16 09:24:55;;;;;;;5.88;3.38;;;23.80;35.70;;;;;;4983004;28;20054;-49
2023/06/16 09:27:24;;;;;;;5.35;4.07;;;23.90;36.10;;;;;;4984634;28;20051;-53
2023/06/16 09:29:52;;;;;;;7.05;3.92;;;23.90;35.90;;;;;;4983476;28;20058;-56
2023/06/16 09:32:19;;;;;;;5.90;3.40;;;24.00;35.40;;;;;;4984337;28;20053;-57
2023/06/16 09:34:47;;;;;;;7.53;3.90;;;24.00;33.60;;;;;;4983776;28;20054;-60
2023/06/16 09:37:19;;;;;;;7.78;3.90;;;24.00;33.40;;;;;;4974669;28;20065;-55
2023/06/16 09:39:48;;;;;;;7.53;4.15;;;24.10;33.40;;;;;;4979990;28;20047;-55
2023/06/16 09:42:16;;;;;;;6.65;3.80;;;24.10;33.50;;;;;;4978467;28;20054;-50
2023/06/16 09:44:44;;;;;;;9.00;4.25;;;24.10;34.10;;;;;;4979165;28;20058;-60
2023/06/16 09:47:14;;;;;;;5.20;3.47;;;24.20;33.80;;;;;;4978399;28;20050;-61
2023/06/16 09:49:41;;;;;;;5.53;3.72;;;24.20;33.20;;;;;;4979191;28;20399;-56
2023/06/16 09:52:08;;;;;;;5.13;3.70;;;24.30;33.90;;;;;;4978953;28;20062;-53
2023/06/16 09:54:36;;;;;;;5.97;3.50;;;24.30;34.20;;;;;;4980293;28;20057;-55
2023/06/16 09:57:07;;;;;;;5.70;3.63;;;24.40;34.10;;;;;;4980933;28;20055;-56
2023/06/16 09:59:34;;;;;;;5.60;3.90;;;24.40;32.70;;;;;;4981154;28;20494;-54
2023/06/16 10:02:03;;;;;;;5.28;4.15;;;24.40;32.50;;;;;;4980687;28;20419;-53
2023/06/16 10:04:33;;;;;;;6.40;4.53;;;24.50;33.00;;;;;;4982180;28;20077;-55
2023/06/16 10:07:03;;;;;;;6.38;3.65;;;24.50;33.30;;;;;;4977910;28;20054;-55
2023/06/16 10:09:37;;;;;;;9.98;3.92;;;24.60;33.80;;;;;;4978216;28;21176;-56
2023/06/16 10:12:07;;;;;;;6.63;3.90;;;24.60;33.20;;;;;;4976706;28;20054;-61
2023/06/16 10:14:36;;;;;;;5.03;3.67;;;24.70;34.00;;;;;;4981393;28;20495;-60
2023/06/16 10:17:05;;;;;;;6.25;3.55;;;24.70;33.90;;;;;;4977989;28;20408;-61
2023/06/16 10:19:37;;;;;;;6.22;4.13;;;24.70;33.80;;;;;;4978533;28;20057;-63
2023/06/16 10:22:05;;;;;;;8.68;4.38;;;24.70;33.00;;;;;;4978616;28;20050;-50
2023/06/16 10:24:33;;;;;;;5.05;3.92;;;24.70;33.60;;;;;;4979553;28;20058;-50
2023/06/16 10:27:01;;;;;;;6.43;4.55;;;24.80;33.80;;;;;;4977548;28;20062;-47
2023/06/16 10:29:30;;;;;;;6.65;3.90;;;24.80;34.10;;;;;;4979835;28;20524;-55
2023/06/16 10:32:04;;;;;;;7.38;4.30;;;24.90;34.30;;;;;;4980126;28;20506;-45
2023/06/16 10:34:31;;;;;;;6.32;4.05;;;24.90;34.30;;;;;;4976939;28;20118;-54
2023/06/16 10:36:58;;;;;;;7.28;4.28;;;25.00;34.50;;;;;;4979448;28;20050;-55
2023/06/16 10:39:26;;;;;;;9.18;4.88;;;25.00;34.20;;;;;;4978143;28;20061;-47
2023/06/16 10:41:55;;;;;;;6.97;3.70;;;25.10;34.10;;;;;;4977240;28;20051;-45
2023/06/16 10:44:24;;;;;;;5.97;4.35;;;25.20;34.10;;;;;;4977645;28;20057;-50
2023/06/16 10:47:28;;;;;;;10.10;4.40;;;25.20;33.30;;;;;;4976066;28;20054;-50
2023/06/16 10:49:57;;;;;;;7.00;4.30;;;25.20;33.60;;;;;;4978457;28;20057;-47
2023/06/16 10:52:52;;;;;;;5.20;3.78;;;25.30;33.70;;;;;;4975036;28;20054;-44
2023/06/16 10:55:35;;;;;;;11.52;4.55;;;25.30;33.90;;;;;;4980958;28;20058;-49
2023/06/16 10:58:23;;;;;;;8.75;4.57;;;25.40;33.50;;;;;;4980966;28;20057;-56
2023/06/16 11:01:32;;;;;;;8.05;4.80;;;25.40;33.90;;;;;;4980743;28;20050;-45
2023/06/16 11:04:02;;;;;;;7.07;4.30;;;25.40;34.30;;;;;;4973309;28;20061;-50
2023/06/16 11:06:49;;;;;;;11.40;4.47;;;25.50;33.90;;;;;;4984786;28;20335;-57
2023/06/16 11:09:19;;;;;;;7.38;3.78;;;25.50;33.80;;;;;;4981768;28;20068;-50
2023/06/16 11:11:47;;;;;;;9.60;4.68;;;25.60;34.00;;;;;;4985513;28;20054;-50
2023/06/16 11:14:17;;;;;;;8.15;4.70;;;25.60;33.40;;;;;;4983057;28;20078;-48
2023/06/16 11:16:45;;;;;;;6.65;4.07;;;25.60;34.00;;;;;;4982584;28;20055;-52
2023/06/16 11:19:18;;;;;;;6.72;4.38;;;25.70;34.10;;;;;;4979736;28;20414;-47
2023/06/16 11:21:45;;;;;;;10.52;4.50;;;25.70;33.60;;;;;;4982682;28;20050;-52
2023/06/16 11:24:13;;;;;;;10.60;4.05;;;25.80;34.30;;;;;;4982192;28;20050;-57
2023/06/16 11:26:41;;;;;;;7.57;4.03;;;25.80;33.20;;;;;;4983902;28;20057;-53
2023/06/16 11:29:08;;;;;;;9.60;4.53;;;25.80;32.60;;;;;;4982970;28;20057;-46
2023/06/16 11:31:37;;;;;;;10.20;4.40;;;25.90;32.80;;;;;;4981632;28;20566;-49
2023/06/16 11:34:04;;;;;;;5.40;3.63;;;25.90;32.00;;;;;;4984571;28;20426;-48
2023/06/16 11:36:35;;;;;;;9.77;4.30;;;25.90;31.80;;;;;;4980492;28;20054;-50
2023/06/16 11:39:04;;;;;;;6.80;3.97;;;25.90;31.60;;;;;;4982964;28;20054;-53
2023/06/16 11:41:31;;;;;;;5.07;3.70;;;25.90;31.30;;;;;;4983573;28;20065;-57
2023/06/16 11:43:59;;;;;;;6.03;4.18;;;25.90;31.40;;;;;;4984273;28;20497;-53
2023/06/16 11:46:27;;;;;;;5.47;3.90;;;26.00;31.10;;;;;;4984257;28;20122;-48
2023/06/16 11:48:57;;;;;;;4.70;3.50;;;26.00;31.70;;;;;;4981152;28;20513;-47
2023/06/16 11:51:25;;;;;;;8.60;3.85;;;26.10;32.20;;;;;;4983121;28;20046;-47
2023/06/16 11:53:54;;;;;;;15.60;4.30;;;26.10;32.30;;;;;;4981881;28;20054;-49
2023/06/16 11:56:24;;;;;;;5.93;4.10;;;26.20;31.60;;;;;;4983674;28;20057;-55
2023/06/16 11:58:52;;;;;;;6.25;3.97;;;26.20;30.90;;;;;;4983491;28;21997;-62
2023/06/16 12:01:22;;;;;;;8.68;4.50;;;26.30;30.50;;;;;;4982253;28;20050;-57
2023/06/16 12:03:49;;;;;;;6.43;3.88;;;26.30;30.10;;;;;;4982674;28;20193;-58
2023/06/16 12:06:17;;;;;;;5.50;3.67;;;26.40;30.90;;;;;;4981748;28;20059;-47
2023/06/16 12:08:46;;;;;;;6.72;3.38;;;26.40;29.80;;;;;;4980959;28;20054;-47
2023/06/16 12:11:23;;;;;;;7.00;4.00;;;26.50;30.30;;;;;;4983024;28;20057;-47
2023/06/16 12:13:52;;;;;;;5.70;3.80;;;26.50;30.30;;;;;;4979332;28;20053;-46
2023/06/16 12:16:21;;;;;;;4.38;3.50;;;26.60;31.10;;;;;;4981122;28;20057;-48
2023/06/16 12:18:50;;;;;;;4.60;3.72;;;26.60;29.80;;;;;;4982269;28;20080;-54
2023/06/16 12:21:19;;;;;;;6.18;3.80;;;26.60;29.90;;;;;;4981888;28;20402;-48
2023/06/16 12:23:53;;;;;;;6.15;4.28;;;26.70;30.20;;;;;;4979930;28;20058;-50
2023/06/16 12:26:30;;;;;;;5.22;3.95;;;26.70;29.50;;;;;;4982830;28;20054;-47
2023/06/16 12:28:59;;;;;;;5.18;3.63;;;26.80;30.00;;;;;;4980037;28;20058;-55
2023/06/16 12:31:28;;;;;;;6.57;4.10;;;26.80;29.70;;;;;;4979227;28;20058;-48
2023/06/16 12:33:56;;;;;;;6.93;3.92;;;26.80;30.00;;;;;;4979337;28;20046;-66
2023/06/16 12:36:24;;;;;;;5.68;3.80;;;26.90;29.70;;;;;;4981176;28;20617;-53
2023/06/16 12:38:53;;;;;;;6.88;3.53;;;27.00;28.60;;;;;;4980962;28;20061;-51
2023/06/16 12:41:21;;;;;;;5.50;3.85;;;26.90;28.90;;;;;;4979753;28;20050;-47
2023/06/16 12:43:52;;;;;;;5.82;3.72;;;27.00;28.60;;;;;;4977876;28;20061;-45
2023/06/16 12:46:20;;;;;;;5.53;3.40;;;27.00;29.40;;;;;;4982365;28;20494;-49
2023/06/16 12:48:48;;;;;;;4.78;3.60;;;27.10;28.10;;;;;;4981296;28;20058;-63
2023/06/16 12:51:17;;;;;;;8.45;4.20;;;27.10;28.40;;;;;;4982028;28;20410;-55
2023/06/16 12:53:46;;;;;;;5.47;3.47;;;27.20;28.90;;;;;;4982957;28;20065;-51